Time;durP1;ratioP1;P1;durP2;ratioP2;P2;SDS_P1;SDS_P2;PMS_P1;PMS_P2;Temp;Humidity;BMP_temperature;BMP_pressure;BME280_temperature;BME280_humidity;BME280_pressure;Samples;Min_cycle;Max_cycle;Signal;HPM_P1;HPM_P2
2023/05/21 00:00:36;;;;;;;80.32;51.90;;;;;;;;;;2090905;28;20405;-69
2023/05/21 00:01:58;;;;;;;60.95;38.83;;;;;;;;;;2108428;28;20047;-68
2023/05/21 00:03:19;;;;;;;;;;;;;;;;;;2102255;28;20353;-69
2023/05/21 00:04:40;;;;;;;34.78;22.35;;;;;;;;;;2101266;28;19905;-69
2023/05/21 00:06:02;;;;;;;24.60;16.30;;;;;;;;;;2105240;28;20028;-69
2023/05/21 00:07:24;;;;;;;21.05;12.93;;;;;;;;;;2104082;28;20028;-69
2023/05/21 00:08:45;;;;;;;20.80;12.63;;;;;;;;;;2095151;28;20527;-69
2023/05/21 00:10:06;;;;;;;15.77;10.70;;;;;;;;;;2095053;28;20028;-69
2023/05/21 00:11:27;;;;;;;14.95;9.88;;;;;;;;;;2093861;28;20036;-68
2023/05/21 00:12:47;;;;;;;15.93;10.00;;;;;;;;;;2097066;28;20043;-70
2023/05/21 00:14:08;;;;;;;10.60;9.00;;;;;;;;;;2095350;28;20440;-68
2023/05/21 00:15:29;;;;;;;13.38;9.48;;;;;;;;;;2093370;28;20041;-69
2023/05/21 00:16:50;;;;;;;14.25;8.88;;;;;;;;;;2104302;28;20345;-69
2023/05/21 00:18:11;;;;;;;14.27;9.48;;;;;;;;;;2103974;28;20040;-69
2023/05/21 00:19:32;;;;;;;19.73;10.02;;;;;;;;;;2090582;28;20036;-69
2023/05/21 00:20:53;;;;;;;13.60;9.13;;;;;;;;;;2088935;28;20020;-70
2023/05/21 00:22:14;;;;;;;14.73;9.20;;;;;;;;;;2095715;28;20177;-70
2023/05/21 00:23:36;;;;;;;15.50;9.03;;;;;;;;;;2097771;28;20036;-70
2023/05/21 00:24:57;;;;;;;12.30;9.27;;;;;;;;;;2098291;28;20426;-70
2023/05/21 00:26:18;;;;;;;19.52;10.13;;;;;;;;;;2096821;28;20036;-70
2023/05/21 00:27:39;;;;;;;12.55;8.32;;;;;;;;;;2089217;28;20075;-70
2023/05/21 00:29:00;;;;;;;15.70;9.88;;;;;;;;;;2088748;28;20383;-69
2023/05/21 00:30:21;;;;;;;11.95;8.57;;;;;;;;;;2096972;28;20036;-69
2023/05/21 00:31:42;;;;;;;17.25;9.85;;;;;;;;;;2083936;28;20116;-70
2023/05/21 00:33:02;;;;;;;14.25;9.90;;;;;;;;;;2090501;28;20035;-70
2023/05/21 00:34:23;;;;;;;14.18;9.02;;;;;;;;;;2093981;28;20481;-69
2023/05/21 00:35:45;;;;;;;16.60;9.60;;;;;;;;;;2099994;28;20043;-70
2023/05/21 00:37:08;;;;;;;13.38;8.90;;;;;;;;;;2104063;28;20025;-70
2023/05/21 00:38:31;;;;;;;10.48;8.48;;;;;;;;;;2089532;28;20501;-70
2023/05/21 00:39:52;;;;;;;13.30;8.80;;;;;;;;;;2093607;28;20025;-70
2023/05/21 00:41:13;;;;;;;11.65;9.15;;;;;;;;;;2096076;28;20048;-69
2023/05/21 00:42:38;;;;;;;11.95;8.70;;;;;;;;;;2094859;28;20033;-70
2023/05/21 00:43:59;;;;;;;15.98;9.15;;;;;;;;;;2087535;28;20033;-69
2023/05/21 00:45:22;;;;;;;13.88;9.45;;;;;;;;;;2098977;28;20035;-69
2023/05/21 00:46:43;;;;;;;25.55;12.10;;;;;;;;;;2089676;28;20035;-69
2023/05/21 00:48:05;;;;;;;13.32;9.65;;;;;;;;;;2090982;28;20021;-70
2023/05/21 00:49:26;;;;;;;17.60;11.27;;;;;;;;;;2098755;28;20086;-69
2023/05/21 00:50:48;;;;;;;27.60;11.52;;;;;;;;;;2093233;28;21204;-69
2023/05/21 00:52:09;;;;;;;;;;;;;;;;;;2101135;28;20036;-69
2023/05/21 00:53:30;;;;;;;16.67;9.95;;;;;;;;;;2100480;28;19919;-70
2023/05/21 00:54:51;;;;;;;15.00;10.02;;;;;;;;;;2103147;28;20304;-69
2023/05/21 00:56:12;;;;;;;15.52;9.43;;;;;;;;;;2093167;28;20048;-69
2023/05/21 00:57:35;;;;;;;20.45;10.90;;;;;;;;;;2094104;28;20108;-70
2023/05/21 00:58:57;;;;;;;22.75;11.52;;;;;;;;;;2098461;28;20032;-69
2023/05/21 01:00:18;;;;;;;13.77;10.55;;;;;;;;;;2092108;28;20044;-70
2023/05/21 01:01:38;;;;;;;25.23;12.00;;;;;;;;;;2090036;28;20066;-70
2023/05/21 02:09:57;;;;;;;24.55;11.00;;;;;;;;;;2126079;23;20061;-90
2023/05/21 02:11:18;;;;;;;15.20;10.07;;;;;;;;;;2071097;28;20058;-91
2023/05/21 02:12:39;;;;;;;16.85;10.57;;;;;;;;;;2069166;28;20462;-91
2023/05/21 02:14:00;;;;;;;15.35;10.48;;;;;;;;;;2069308;28;20049;-91
2023/05/21 02:15:21;;;;;;;16.45;10.30;;;;;;;;;;2067171;28;20034;-91
2023/05/21 02:16:42;;;;;;;15.80;9.80;;;;;;;;;;2068251;28;20071;-91
2023/05/21 02:18:03;;;;;;;15.93;9.48;;;;;;;;;;2071549;28;20068;-91
2023/05/21 02:19:24;;;;;;;16.92;10.43;;;;;;;;;;2071421;28;20053;-91
2023/05/21 02:20:48;;;;;;;17.37;10.33;;;;;;;;;;2069247;28;20030;-91
2023/05/21 02:22:14;;;;;;;15.23;10.00;;;;;;;;;;2066991;28;20424;-91
2023/05/21 02:23:35;;;;;;;31.15;15.93;;;;;;;;;;2065056;28;20037;-90
2023/05/21 02:24:56;;;;;;;13.40;9.63;;;;;;;;;;2070570;28;20033;-91
2023/05/21 02:26:17;;;;;;;13.80;9.50;;;;;;;;;;2066955;28;20141;-91
2023/05/21 02:27:39;;;;;;;14.63;9.65;;;;;;;;;;2074052;28;20105;-91
2023/05/21 02:29:00;;;;;;;14.23;9.90;;;;;;;;;;2069727;28;20036;-91
2023/05/21 02:30:21;;;;;;;13.60;10.17;;;;;;;;;;2069411;28;20042;-90
2023/05/21 02:31:42;;;;;;;20.00;11.45;;;;;;;;;;2071886;28;20084;-91
2023/05/21 02:33:03;;;;;;;13.00;9.77;;;;;;;;;;2061926;28;20030;-91
2023/05/21 02:34:24;;;;;;;15.88;10.00;;;;;;;;;;2067907;28;20057;-90
2023/05/21 02:35:45;;;;;;;14.63;9.88;;;;;;;;;;2072673;28;20022;-91
2023/05/21 02:37:08;;;;;;;15.50;10.18;;;;;;;;;;2070674;28;20038;-91
2023/05/21 02:38:31;;;;;;;20.63;10.93;;;;;;;;;;2071573;28;20026;-92
2023/05/21 02:39:54;;;;;;;12.15;9.60;;;;;;;;;;2071008;28;20026;-91
2023/05/21 02:41:15;;;;;;;12.18;9.13;;;;;;;;;;2071170;28;20167;-91
2023/05/21 02:42:38;;;;;;;16.42;10.32;;;;;;;;;;2066206;28;20049;-93
2023/05/21 02:43:59;;;;;;;15.30;10.02;;;;;;;;;;2071017;28;20049;-94
2023/05/21 02:45:20;;;;;;;16.15;10.63;;;;;;;;;;2069933;28;20025;-94
2023/05/21 02:46:41;;;;;;;16.98;10.27;;;;;;;;;;2069768;28;20030;-94
2023/05/21 02:48:02;;;;;;;10.98;8.93;;;;;;;;;;2071833;28;20084;-94
2023/05/21 02:49:23;;;;;;;17.70;10.55;;;;;;;;;;2068646;28;20034;-94
2023/05/21 02:50:44;;;;;;;14.75;9.80;;;;;;;;;;2071834;28;20026;-93
2023/05/21 02:52:05;;;;;;;15.50;10.10;;;;;;;;;;2070863;28;20018;-93
2023/05/21 02:53:26;;;;;;;15.40;10.55;;;;;;;;;;2068740;28;20030;-93
2023/05/21 02:54:47;;;;;;;21.33;11.43;;;;;;;;;;2073951;28;20053;-93
2023/05/21 02:56:08;;;;;;;16.10;9.65;;;;;;;;;;2070712;28;20026;-91
2023/05/21 02:57:29;;;;;;;15.57;10.85;;;;;;;;;;2069618;28;20501;-91
2023/05/21 02:58:50;;;;;;;16.95;10.07;;;;;;;;;;2068969;28;20026;-91
2023/05/21 03:00:12;;;;;;;15.90;10.37;;;;;;;;;;2074207;28;20034;-91
2023/05/21 03:01:33;;;;;;;16.73;10.13;;;;;;;;;;2074140;28;20093;-91
2023/05/21 03:02:54;;;;;;;17.08;10.10;;;;;;;;;;2069230;28;20044;-91
2023/05/21 03:04:16;;;;;;;16.27;10.20;;;;;;;;;;2067330;28;20030;-90
2023/05/21 03:05:37;;;;;;;20.25;11.15;;;;;;;;;;2067324;28;20143;-91
2023/05/21 03:07:00;;;;;;;24.73;12.35;;;;;;;;;;2063671;28;20041;-91
2023/05/21 03:08:22;;;;;;;26.00;12.48;;;;;;;;;;2060478;28;20592;-90
2023/05/21 03:09:43;;;;;;;35.72;13.02;;;;;;;;;;2059537;28;20181;-91
2023/05/21 03:11:04;;;;;;;23.73;11.85;;;;;;;;;;2065799;28;20038;-91
2023/05/21 03:12:25;;;;;;;17.35;10.60;;;;;;;;;;2069852;28;20030;-91
2023/05/21 03:13:46;;;;;;;32.25;14.20;;;;;;;;;;2064671;28;20037;-90
2023/05/21 03:15:07;;;;;;;22.42;11.40;;;;;;;;;;2060427;28;20049;-90
2023/05/21 03:16:28;;;;;;;16.33;11.18;;;;;;;;;;2067936;28;20045;-91
2023/05/21 03:17:49;;;;;;;25.35;11.95;;;;;;;;;;2065397;28;20038;-94
2023/05/21 03:19:11;;;;;;;20.45;11.15;;;;;;;;;;2068487;28;20033;-90
2023/05/21 03:20:35;;;;;;;16.85;10.55;;;;;;;;;;2068253;28;20494;-90
2023/05/21 03:21:56;;;;;;;17.25;10.27;;;;;;;;;;2061942;28;20038;-90
2023/05/21 03:23:17;;;;;;;16.92;10.60;;;;;;;;;;2066772;28;20418;-89
2023/05/21 03:24:38;;;;;;;15.23;9.77;;;;;;;;;;2067356;28;20037;-90
2023/05/21 03:25:59;;;;;;;28.67;12.50;;;;;;;;;;2067670;28;20042;-91
2023/05/21 03:27:20;;;;;;;22.02;10.68;;;;;;;;;;2061307;28;20072;-89
2023/05/21 03:28:41;;;;;;;24.02;11.40;;;;;;;;;;2064516;28;20077;-90
2023/05/21 03:30:02;;;;;;;31.95;13.75;;;;;;;;;;2068333;28;20069;-90
2023/05/21 03:31:24;;;;;;;30.25;12.25;;;;;;;;;;2058407;28;20073;-90
2023/05/21 03:32:45;;;;;;;;;;;;;;;;;;2063763;28;20041;-90
2023/05/21 03:34:07;;;;;;;31.88;13.57;;;;;;;;;;2061601;28;19980;-90
2023/05/21 03:35:28;;;;;;;15.77;10.35;;;;;;;;;;2067755;28;20046;-91
2023/05/21 03:36:49;;;;;;;18.88;11.38;;;;;;;;;;2068988;28;20080;-90
2023/05/21 03:38:10;;;;;;;15.70;10.45;;;;;;;;;;2068560;28;20117;-90
2023/05/21 03:39:31;;;;;;;21.33;11.80;;;;;;;;;;2067578;28;20073;-90
2023/05/21 03:40:52;;;;;;;15.82;10.27;;;;;;;;;;2066469;28;20140;-91
2023/05/21 03:42:13;;;;;;;17.38;11.00;;;;;;;;;;2067544;28;20033;-91
2023/05/21 03:43:34;;;;;;;26.52;13.00;;;;;;;;;;2063945;28;20554;-90
2023/05/21 03:44:55;;;;;;;18.77;11.15;;;;;;;;;;2067729;28;20030;-91
2023/05/21 03:46:16;;;;;;;18.40;11.30;;;;;;;;;;2064260;28;20041;-91
2023/05/21 03:47:37;;;;;;;32.05;13.77;;;;;;;;;;2060226;28;20096;-91
2023/05/21 03:48:58;;;;;;;24.73;12.00;;;;;;;;;;2067281;28;20050;-90
2023/05/21 03:50:19;;;;;;;19.10;12.02;;;;;;;;;;2068810;28;20089;-90
2023/05/21 03:51:40;;;;;;;21.98;11.82;;;;;;;;;;2067466;28;20061;-91
2023/05/21 03:53:01;;;;;;;22.13;11.68;;;;;;;;;;2065200;28;20049;-91
2023/05/21 03:54:22;;;;;;;20.60;11.25;;;;;;;;;;2061703;28;20054;-91
2023/05/21 03:55:43;;;;;;;17.88;11.38;;;;;;;;;;2069709;28;20033;-91
2023/05/21 03:57:04;;;;;;;16.13;10.45;;;;;;;;;;2062781;28;20053;-91
2023/05/21 03:58:25;;;;;;;27.05;12.88;;;;;;;;;;2065694;28;20030;-91
2023/05/21 03:59:46;;;;;;;14.97;10.40;;;;;;;;;;2069488;28;20084;-91
2023/05/21 04:01:07;;;;;;;30.02;14.10;;;;;;;;;;2066413;28;20576;-90
2023/05/21 04:02:28;;;;;;;32.70;14.15;;;;;;;;;;2061620;28;20097;-91
2023/05/21 04:03:49;;;;;;;33.22;15.43;;;;;;;;;;2063722;28;20034;-90
2023/05/21 04:05:10;;;;;;;33.05;13.77;;;;;;;;;;2060641;28;20113;-91
2023/05/21 04:06:31;;;;;;;26.98;13.27;;;;;;;;;;2065144;28;20026;-90
2023/05/21 04:07:53;;;;;;;28.13;12.65;;;;;;;;;;2063972;28;20097;-91
2023/05/21 04:09:14;;;;;;;24.13;11.80;;;;;;;;;;2064298;28;20100;-91
2023/05/21 04:10:35;;;;;;;31.50;13.63;;;;;;;;;;2064124;28;20462;-91
2023/05/21 04:11:55;;;;;;;23.40;12.18;;;;;;;;;;2070889;28;20550;-91
2023/05/21 04:13:16;;;;;;;22.20;11.57;;;;;;;;;;2067794;28;20125;-91
2023/05/21 04:14:37;;;;;;;29.95;13.95;;;;;;;;;;2064164;28;20058;-91
2023/05/21 04:15:58;;;;;;;15.63;10.43;;;;;;;;;;2067496;28;20112;-90
2023/05/21 04:17:20;;;;;;;20.60;11.85;;;;;;;;;;2066739;28;20572;-90
2023/05/21 04:18:41;;;;;;;30.77;13.57;;;;;;;;;;2063818;28;20061;-91
2023/05/21 04:20:03;;;;;;;19.63;12.02;;;;;;;;;;2066375;28;20061;-91
2023/05/21 04:21:24;;;;;;;31.85;14.18;;;;;;;;;;2061658;28;20038;-90
2023/05/21 04:22:45;;;;;;;31.23;13.75;;;;;;;;;;2061429;28;20415;-91
2023/05/21 04:24:06;;;;;;;33.50;13.77;;;;;;;;;;2063852;28;20422;-90
2023/05/21 04:25:27;;;;;;;32.95;14.40;;;;;;;;;;2068810;28;20041;-91
2023/05/21 04:26:48;;;;;;;32.75;14.38;;;;;;;;;;2062115;28;20275;-91
2023/05/21 04:28:09;;;;;;;34.22;14.80;;;;;;;;;;2058669;28;20394;-91
2023/05/21 04:29:30;;;;;;;34.33;14.52;;;;;;;;;;2060069;28;20781;-91
2023/05/21 04:30:51;;;;;;;35.10;14.45;;;;;;;;;;2062392;28;20081;-91
2023/05/21 04:32:13;;;;;;;25.20;12.73;;;;;;;;;;2061247;28;20724;-90
2023/05/21 04:33:34;;;;;;;21.65;11.93;;;;;;;;;;2064825;28;20026;-91
2023/05/21 04:34:56;;;;;;;31.92;14.32;;;;;;;;;;2061905;28;20042;-91
2023/05/21 04:36:17;;;;;;;27.33;12.88;;;;;;;;;;2059295;28;20152;-91
2023/05/21 04:37:40;;;;;;;33.55;14.63;;;;;;;;;;2061873;28;20206;-91
2023/05/21 04:39:01;;;;;;;29.17;13.02;;;;;;;;;;2060122;28;20064;-90
2023/05/21 04:40:23;;;;;;;22.52;11.80;;;;;;;;;;2064566;28;20068;-90
2023/05/21 04:41:44;;;;;;;17.60;11.38;;;;;;;;;;2067636;28;20025;-90
2023/05/21 04:43:05;;;;;;;27.80;13.30;;;;;;;;;;2067759;28;20041;-90
2023/05/21 04:44:26;;;;;;;22.33;12.48;;;;;;;;;;2067788;28;20042;-90
2023/05/21 04:45:47;;;;;;;22.13;11.98;;;;;;;;;;2070713;28;20390;-90
2023/05/21 04:47:09;;;;;;;27.60;12.57;;;;;;;;;;2069501;28;20037;-90
2023/05/21 04:48:30;;;;;;;21.88;11.70;;;;;;;;;;2065716;28;20081;-90
2023/05/21 04:49:52;;;;;;;21.10;11.30;;;;;;;;;;2063438;28;20018;-90
2023/05/21 04:51:13;;;;;;;27.48;12.82;;;;;;;;;;2063064;28;20114;-90
2023/05/21 04:52:35;;;;;;;20.75;11.43;;;;;;;;;;2064898;28;20373;-91
2023/05/21 04:53:57;;;;;;;33.10;15.38;;;;;;;;;;2066777;28;20137;-90
2023/05/21 04:55:17;;;;;;;24.17;12.73;;;;;;;;;;2063734;28;20089;-90
2023/05/21 04:56:39;;;;;;;31.90;14.10;;;;;;;;;;2060547;28;20050;-91
2023/05/21 04:58:00;;;;;;;31.85;14.75;;;;;;;;;;2063769;28;20034;-90
2023/05/21 04:59:21;;;;;;;34.28;14.30;;;;;;;;;;2061886;28;20050;-91
2023/05/21 05:00:44;;;;;;;31.92;14.23;;;;;;;;;;2065488;28;20042;-91
2023/05/21 05:02:05;;;;;;;35.03;15.65;;;;;;;;;;2060525;28;20030;-91
2023/05/21 05:03:26;;;;;;;36.00;15.32;;;;;;;;;;2063363;28;20051;-91
2023/05/21 05:04:47;;;;;;;27.13;13.30;;;;;;;;;;2062689;28;20096;-90
2023/05/21 05:06:08;;;;;;;28.90;13.77;;;;;;;;;;2059872;28;20076;-90
2023/05/21 05:07:30;;;;;;;35.05;14.50;;;;;;;;;;2060453;28;20088;-90
2023/05/21 05:08:51;;;;;;;36.47;15.65;;;;;;;;;;2060583;28;20057;-90
2023/05/21 05:10:12;;;;;;;23.10;13.05;;;;;;;;;;2074773;28;20135;-90
2023/05/21 05:11:33;;;;;;;31.92;15.10;;;;;;;;;;2068857;28;20104;-91
2023/05/21 05:12:54;;;;;;;21.90;12.38;;;;;;;;;;2060415;28;20068;-90
2023/05/21 05:14:15;;;;;;;31.75;14.30;;;;;;;;;;2066147;28;20099;-91
2023/05/21 05:15:36;;;;;;;33.15;14.52;;;;;;;;;;2060338;28;20072;-91
2023/05/21 05:16:59;;;;;;;32.78;14.80;;;;;;;;;;2061627;28;20128;-90
2023/05/21 05:18:20;;;;;;;34.88;14.75;;;;;;;;;;2065854;28;20026;-91
2023/05/21 05:19:41;;;;;;;31.52;14.27;;;;;;;;;;2060878;28;20295;-91
2023/05/21 05:21:02;;;;;;;26.05;13.30;;;;;;;;;;2063965;28;20026;-91
2023/05/21 05:22:24;;;;;;;27.27;13.95;;;;;;;;;;2063906;28;20607;-90
2023/05/21 05:23:44;;;;;;;35.30;14.93;;;;;;;;;;2058252;28;20036;-91
2023/05/21 05:25:06;;;;;;;34.95;14.88;;;;;;;;;;2060078;28;20104;-91
2023/05/21 05:26:27;;;;;;;24.48;12.85;;;;;;;;;;2063122;28;20034;-91
2023/05/21 05:27:48;;;;;;;22.65;11.73;;;;;;;;;;2061830;28;20042;-90
2023/05/21 05:29:09;;;;;;;17.27;10.93;;;;;;;;;;2070946;28;20034;-91
2023/05/21 05:30:30;;;;;;;20.55;11.80;;;;;;;;;;2072484;28;20038;-91
2023/05/21 05:31:51;;;;;;;17.52;11.85;;;;;;;;;;2071138;28;20018;-91
2023/05/21 05:33:12;;;;;;;18.70;12.07;;;;;;;;;;2072109;28;20022;-91
2023/05/21 05:34:33;;;;;;;19.83;11.70;;;;;;;;;;2060687;28;20469;-90
2023/05/21 05:35:54;;;;;;;16.73;11.52;;;;;;;;;;2066997;28;20030;-91
2023/05/21 05:37:16;;;;;;;20.45;11.88;;;;;;;;;;2076481;28;20049;-90
2023/05/21 05:38:36;;;;;;;17.05;11.75;;;;;;;;;;2070608;28;20039;-91
2023/05/21 05:39:57;;;;;;;16.35;12.00;;;;;;;;;;2065371;28;20775;-91
2023/05/21 05:41:18;;;;;;;25.98;13.57;;;;;;;;;;2067138;28;20041;-90
2023/05/21 05:42:39;;;;;;;25.67;13.32;;;;;;;;;;2068491;28;20033;-91
2023/05/21 05:44:00;;;;;;;16.58;12.13;;;;;;;;;;2066536;28;20034;-91
2023/05/21 05:45:27;;;;;;;17.38;11.23;;;;;;;;;;2068884;28;20440;-90
2023/05/21 05:46:48;;;;;;;21.63;12.98;;;;;;;;;;2063478;28;20116;-91
2023/05/21 05:48:09;;;;;;;20.17;12.60;;;;;;;;;;2072362;28;20033;-91
2023/05/21 05:49:30;;;;;;;16.35;11.57;;;;;;;;;;2076688;28;20033;-91
2023/05/21 05:50:53;;;;;;;22.15;12.23;;;;;;;;;;2068861;28;20038;-89
2023/05/21 05:52:14;;;;;;;30.65;14.30;;;;;;;;;;2060214;28;20120;-91
2023/05/21 05:53:35;;;;;;;28.08;13.45;;;;;;;;;;2064236;28;20359;-91
2023/05/21 05:54:58;;;;;;;18.13;12.38;;;;;;;;;;2063419;28;20045;-91
2023/05/21 05:56:19;;;;;;;17.27;11.13;;;;;;;;;;2063486;28;20030;-91
2023/05/21 05:57:39;;;;;;;19.10;12.13;;;;;;;;;;2065828;28;20026;-91
2023/05/21 05:59:00;;;;;;;18.60;12.13;;;;;;;;;;2063311;28;20396;-90
2023/05/21 06:00:21;;;;;;;16.08;11.55;;;;;;;;;;2069387;28;20030;-90
2023/05/21 06:01:42;;;;;;;28.02;13.80;;;;;;;;;;2068789;28;20030;-91
2023/05/21 06:03:03;;;;;;;19.48;12.38;;;;;;;;;;2066013;28;20038;-91
2023/05/21 06:04:24;;;;;;;25.08;13.18;;;;;;;;;;2059031;28;21466;-91
2023/05/21 06:05:45;;;;;;;29.83;13.35;;;;;;;;;;2065363;28;20030;-91
2023/05/21 06:07:06;;;;;;;22.02;12.60;;;;;;;;;;2065454;28;20417;-91
2023/05/21 06:08:27;;;;;;;22.33;12.27;;;;;;;;;;2064748;28;20034;-91
2023/05/21 06:09:48;;;;;;;17.10;11.38;;;;;;;;;;2068774;28;20022;-91
2023/05/21 06:11:10;;;;;;;22.63;12.88;;;;;;;;;;2067014;28;20066;-91
2023/05/21 06:12:31;;;;;;;25.88;13.75;;;;;;;;;;2064154;28;20034;-91
2023/05/21 06:13:52;;;;;;;26.60;12.85;;;;;;;;;;2062865;28;20220;-91
2023/05/21 06:15:18;;;;;;;30.50;13.98;;;;;;;;;;2065517;28;20042;-92
2023/05/21 06:16:39;;;;;;;21.65;12.25;;;;;;;;;;2066605;28;20034;-91
2023/05/21 06:18:00;;;;;;;18.73;11.93;;;;;;;;;;2066028;28;20026;-91
2023/05/21 06:19:21;;;;;;;19.58;11.60;;;;;;;;;;2068491;28;20045;-91
2023/05/21 06:20:42;;;;;;;22.33;12.40;;;;;;;;;;2068311;28;21322;-91
2023/05/21 06:22:03;;;;;;;24.23;13.43;;;;;;;;;;2069678;28;20037;-91
2023/05/21 06:23:24;;;;;;;22.58;12.40;;;;;;;;;;2069324;28;20093;-92
2023/05/21 06:24:45;;;;;;;28.48;13.82;;;;;;;;;;2064733;28;20148;-91
2023/05/21 06:26:06;;;;;;;24.92;12.98;;;;;;;;;;2065744;28;20029;-91
2023/05/21 06:27:27;;;;;;;18.15;11.93;;;;;;;;;;2066137;28;20337;-91
2023/05/21 06:28:48;;;;;;;20.17;11.63;;;;;;;;;;2069761;28;20056;-91
2023/05/21 06:30:10;;;;;;;16.27;10.65;;;;;;;;;;2070747;28;20022;-91
2023/05/21 06:31:34;;;;;;;13.23;10.15;;;;;;;;;;2070202;28;20034;-91
2023/05/21 06:32:56;;;;;;;17.88;11.98;;;;;;;;;;2071975;28;21034;-91
2023/05/21 06:34:19;;;;;;;25.65;14.95;;;;;;;;;;2071872;28;20026;-90
2023/05/21 06:35:40;;;;;;;18.05;11.68;;;;;;;;;;2070098;28;20340;-92
2023/05/21 06:37:01;;;;;;;16.75;11.63;;;;;;;;;;2070688;28;20041;-91
2023/05/21 06:38:22;;;;;;;19.13;12.10;;;;;;;;;;2073026;28;20029;-92
2023/05/21 06:39:43;;;;;;;18.38;11.73;;;;;;;;;;2073884;28;20034;-90
2023/05/21 06:41:04;;;;;;;18.15;11.73;;;;;;;;;;2075268;28;20040;-91
2023/05/21 06:42:25;;;;;;;14.90;9.98;;;;;;;;;;2067562;28;20033;-92
2023/05/21 06:43:46;;;;;;;16.88;11.82;;;;;;;;;;2075716;28;20405;-92
2023/05/21 06:45:07;;;;;;;20.33;11.88;;;;;;;;;;2071589;28;20247;-91
2023/05/21 06:46:28;;;;;;;16.35;11.10;;;;;;;;;;2072428;28;20815;-91
2023/05/21 06:47:51;;;;;;;20.58;11.95;;;;;;;;;;2067770;28;20034;-92
2023/05/21 06:49:13;;;;;;;19.20;10.77;;;;;;;;;;2072949;28;20084;-91
2023/05/21 06:50:34;;;;;;;17.02;11.07;;;;;;;;;;2073388;28;20145;-92
2023/05/21 06:52:04;;;;;;;16.15;10.88;;;;;;;;;;2075174;28;20029;-92
2023/05/21 06:53:25;;;;;;;23.40;11.48;;;;;;;;;;2072653;28;20029;-92
2023/05/21 06:54:46;;;;;;;19.60;11.32;;;;;;;;;;2067990;28;20117;-92
2023/05/21 06:56:07;;;;;;;22.70;13.80;;;;;;;;;;2067541;28;20030;-91
2023/05/21 06:57:31;;;;;;;21.17;12.13;;;;;;;;;;2068901;28;20033;-94
2023/05/21 06:58:53;;;;;;;21.70;12.45;;;;;;;;;;2071137;28;20053;-92
2023/05/21 07:00:14;;;;;;;16.77;11.75;;;;;;;;;;2072503;28;20054;-92
2023/05/21 07:01:35;;;;;;;19.00;12.73;;;;;;;;;;2072827;28;20026;-92
2023/05/21 07:02:56;;;;;;;17.92;12.40;;;;;;;;;;2069903;28;20026;-92
2023/05/21 07:04:17;;;;;;;34.55;16.83;;;;;;;;;;2059930;28;20022;-93
2023/05/21 07:05:40;;;;;;;18.73;11.38;;;;;;;;;;2068935;28;20038;-91
2023/05/21 07:07:03;;;;;;;23.38;12.55;;;;;;;;;;2068483;28;20655;-92
2023/05/21 07:08:24;;;;;;;22.65;12.75;;;;;;;;;;2064675;28;20027;-92
2023/05/21 07:09:45;;;;;;;15.18;11.07;;;;;;;;;;2067376;28;20045;-92
2023/05/21 07:11:06;;;;;;;18.40;11.57;;;;;;;;;;2072929;28;20045;-93
2023/05/21 07:12:27;;;;;;;20.20;12.43;;;;;;;;;;2067802;28;20030;-92
2023/05/21 07:13:48;;;;;;;22.42;12.15;;;;;;;;;;2072679;28;20018;-92
2023/05/21 07:15:12;;;;;;;18.65;11.35;;;;;;;;;;2072833;28;20045;-93
2023/05/21 07:16:33;;;;;;;19.65;12.10;;;;;;;;;;2073622;28;20032;-92
2023/05/21 07:17:55;;;;;;;26.33;12.45;;;;;;;;;;2073345;28;20026;-92
2023/05/21 07:19:16;;;;;;;17.38;11.48;;;;;;;;;;2072574;28;20100;-91
2023/05/21 07:20:37;;;;;;;17.83;11.48;;;;;;;;;;2067991;28;20023;-93
2023/05/21 07:21:58;;;;;;;17.48;12.18;;;;;;;;;;2079997;28;20042;-92
2023/05/21 07:23:20;;;;;;;20.58;12.52;;;;;;;;;;2069548;28;20022;-92
2023/05/21 07:24:41;;;;;;;20.35;11.55;;;;;;;;;;2063140;28;20048;-92
2023/05/21 07:26:02;;;;;;;22.27;12.32;;;;;;;;;;2066498;28;20039;-91
2023/05/21 07:27:23;;;;;;;18.08;11.25;;;;;;;;;;2070011;28;20057;-92
2023/05/21 07:28:44;;;;;;;18.95;12.05;;;;;;;;;;2069135;28;20052;-92
2023/05/21 07:30:05;;;;;;;21.45;12.45;;;;;;;;;;2070656;28;20037;-91
2023/05/21 07:31:26;;;;;;;21.55;11.00;;;;;;;;;;2070121;28;20034;-91
2023/05/21 07:32:47;;;;;;;23.33;12.40;;;;;;;;;;2071288;28;20030;-91
2023/05/21 07:34:08;;;;;;;22.00;12.25;;;;;;;;;;2066133;28;20834;-91
2023/05/21 07:35:29;;;;;;;18.15;10.77;;;;;;;;;;2071176;28;20081;-91
2023/05/21 07:36:50;;;;;;;19.95;11.20;;;;;;;;;;2071090;28;20057;-90
2023/05/21 07:38:11;;;;;;;19.25;12.23;;;;;;;;;;2071548;28;20026;-91
2023/05/21 07:39:32;;;;;;;21.70;11.98;;;;;;;;;;2074715;28;20049;-91
2023/05/21 07:40:56;;;;;;;18.38;11.45;;;;;;;;;;2071973;28;20030;-91
2023/05/21 07:42:17;;;;;;;22.58;12.32;;;;;;;;;;2073342;28;20037;-90
2023/05/21 07:43:38;;;;;;;18.20;11.95;;;;;;;;;;2067162;28;20033;-90
2023/05/21 07:44:59;;;;;;;19.40;11.57;;;;;;;;;;2065933;28;20085;-90
2023/05/21 07:46:21;;;;;;;23.67;13.52;;;;;;;;;;2071116;28;20080;-91
2023/05/21 07:47:43;;;;;;;33.67;12.70;;;;;;;;;;2070118;28;20030;-90
2023/05/21 07:49:04;;;;;;;15.00;10.93;;;;;;;;;;2070392;28;20363;-90
2023/05/21 07:50:25;;;;;;;25.65;12.80;;;;;;;;;;2069431;28;20463;-90
2023/05/21 07:51:46;;;;;;;17.75;10.63;;;;;;;;;;2067803;28;20034;-90
2023/05/21 07:53:07;;;;;;;21.77;12.10;;;;;;;;;;2068991;28;20038;-90
2023/05/21 07:54:28;;;;;;;21.00;12.13;;;;;;;;;;2070201;28;20465;-90
2023/05/21 07:55:50;;;;;;;16.45;11.20;;;;;;;;;;2066503;28;20034;-91
2023/05/21 07:57:11;;;;;;;21.33;11.50;;;;;;;;;;2067752;28;20026;-91
2023/05/21 07:58:33;;;;;;;17.27;10.60;;;;;;;;;;2071595;28;20578;-92
2023/05/21 07:59:55;;;;;;;19.30;11.77;;;;;;;;;;2068810;28;20033;-91
2023/05/21 08:01:16;;;;;;;20.98;12.20;;;;;;;;;;2063571;28;20495;-92
2023/05/21 08:02:37;;;;;;;21.08;11.82;;;;;;;;;;2066608;28;20038;-91
2023/05/21 08:04:06;;;;;;;19.15;11.75;;;;;;;;;;2069078;28;20030;-92
2023/05/21 08:05:40;;;;;;;20.73;13.70;;;;;;;;;;2055019;28;20042;-92
2023/05/21 08:07:04;;;;;;;17.00;10.40;;;;;;;;;;2069388;28;20046;-92
2023/05/21 08:08:25;;;;;;;27.45;13.95;;;;;;;;;;2067921;28;20037;-92
2023/05/21 08:09:46;;;;;;;17.42;11.75;;;;;;;;;;2070167;28;20046;-92
2023/05/21 08:11:08;;;;;;;28.45;13.57;;;;;;;;;;2067813;28;20529;-91
2023/05/21 08:12:37;;;;;;;16.88;10.73;;;;;;;;;;2067480;28;20320;-91
2023/05/21 08:14:03;;;;;;;29.45;13.90;;;;;;;;;;2065058;28;20136;-91
2023/05/21 08:15:27;;;;;;;35.05;18.30;;;;;;;;;;2042218;28;20103;-92
2023/05/21 08:16:48;;;;;;;17.70;11.43;;;;;;;;;;2056626;28;20030;-92
2023/05/21 08:18:10;;;;;;;15.70;11.20;;;;;;;;;;2057977;28;20026;-90
2023/05/21 08:19:36;;;;;;;15.55;10.43;;;;;;;;;;2060719;28;20176;-92
2023/05/21 08:20:57;;;;;;;14.90;10.82;;;;;;;;;;2056639;28;20487;-92
2023/05/21 08:22:18;;;;;;;15.18;10.43;;;;;;;;;;2054020;28;20042;-92
2023/05/21 08:23:55;;;;;;;18.17;12.43;;;;;;;;;;2058763;28;20038;-91
2023/05/21 08:25:24;;;;;;;43.90;28.90;;;;;;;;;;2048191;28;20487;-92
2023/05/21 08:26:46;;;;;;;20.02;12.05;;;;;;;;;;2059865;28;20033;-91
2023/05/21 08:28:07;;;;;;;17.92;12.20;;;;;;;;;;2059980;28;20085;-92
2023/05/21 08:29:28;;;;;;;25.33;15.25;;;;;;;;;;2062550;28;20026;-92
2023/05/21 08:30:49;;;;;;;16.10;11.15;;;;;;;;;;2062961;28;20030;-91
2023/05/21 08:32:10;;;;;;;13.65;9.77;;;;;;;;;;2064115;28;20081;-91
2023/05/21 08:33:45;;;;;;;16.55;10.73;;;;;;;;;;2058696;28;20554;-91
2023/05/21 08:35:07;;;;;;;19.90;11.20;;;;;;;;;;2057886;28;20038;-92
2023/05/21 08:36:46;;;;;;;19.42;11.38;;;;;;;;;;2059089;28;20113;-91
2023/05/21 08:38:07;;;;;;;20.48;12.68;;;;;;;;;;2058015;28;20030;-92
2023/05/21 08:39:28;;;;;;;17.30;11.40;;;;;;;;;;2059233;28;20035;-91
2023/05/21 08:40:50;;;;;;;16.85;10.65;;;;;;;;;;2058707;28;20133;-91
2023/05/21 08:42:18;;;;;;;18.30;11.60;;;;;;;;;;2057903;28;20112;-92
2023/05/21 08:43:49;;;;;;;22.83;11.55;;;;;;;;;;2056449;28;20043;-93
2023/05/21 08:45:51;;;;;;;16.33;10.73;;;;;;;;;;2056849;28;20038;-92
2023/05/21 08:47:15;;;;;;;16.92;11.00;;;;;;;;;;2067493;28;20034;-93
2023/05/21 08:48:42;;;;;;;17.20;11.80;;;;;;;;;;2056801;28;20027;-92
2023/05/21 08:50:03;;;;;;;16.42;11.20;;;;;;;;;;2058658;28;21487;-91
2023/05/21 08:51:25;;;;;;;16.75;10.05;;;;;;;;;;2055249;28;20034;-92
2023/05/21 08:52:53;;;;;;;;;;;;;;;;;;2066153;28;20035;-92
2023/05/21 08:54:21;;;;;;;17.77;11.23;;;;;;;;;;2064797;28;19914;-92
2023/05/21 08:55:44;;;;;;;38.20;19.60;;;;;;;;;;2057941;28;20467;-92
2023/05/21 08:57:05;;;;;;;19.92;12.13;;;;;;;;;;2050459;28;20043;-92
2023/05/21 08:58:29;;;;;;;15.70;10.30;;;;;;;;;;2051464;28;20039;-92
2023/05/21 08:59:50;;;;;;;20.27;12.48;;;;;;;;;;2052678;28;20045;-92
2023/05/21 09:01:11;;;;;;;18.77;11.13;;;;;;;;;;2054741;28;20022;-92
2023/05/21 09:02:33;;;;;;;16.95;11.10;;;;;;;;;;2056318;28;20103;-92
2023/05/21 09:03:55;;;;;;;18.30;11.70;;;;;;;;;;2056373;28;20463;-92
2023/05/21 09:05:16;;;;;;;;;;;;;;;;;;2049573;28;20027;-91